aviador You're here:

KGGI Decoded Metar

GRINNELL REG in IA, USA
Report Time2018-06-18 18:55:00
UTC Time2018-06-18 19:16:00
Flight Rules vfr VFR
Wind220° at 13 kt
W.Decomp.*RWY 13: 0.5 kt HW 13.0 kt RCW
W.Rank220° ranks 21
Current wind is above 220° avg. (8.2)
Visibility9999 m
Phenomena:N/A
Clouds:Scattered 033 Hf
Expected CloudBase > 3,600 ft AGL from Temp-Dew spread
CeilingNone
Temp32°C (ISA +19)
Dew Point23°C (59% RH)
Heat Index36.8°C
QNH1015 hPa
Density Alt3,478 ft
Elevation1,007 ft
Report Wrong Elevation
Raw Report
KGGI 181855Z AUTO 22013KT 10SM SCT033 32/23 A2996 RMK AO2
T03160231=

Extra information for KGGI:More info

Metar Taf Metar & Taf Last 4 Metars F.Rules Stats Wind Profile Meteogram Temp Stats Airport Information Weather charts Add Link Nearby VenuesMetar ALERT Operation Metar Decoded Social comments

AIRNAV info for KGGI